Time;durP1;ratioP1;P1;durP2;ratioP2;P2;SDS_P1;SDS_P2;PMS_P1;PMS_P2;Temp;Humidity;BMP_temperature;BMP_pressure;BME280_temperature;BME280_humidity;BME280_pressure;Samples;Min_cycle;Max_cycle;Signal;HPM_P1;HPM_P2
2022/08/12 00:44:16;;;;;;;3.03;2.72;;;;;17.30;96691.00;;;;8439483;28;20322;-64
2022/08/12 00:48:19;;;;;;;3.22;2.72;;;;;17.20;96685.00;;;;8449663;28;20230;-65
2022/08/12 00:52:24;;;;;;;3.28;2.97;;;;;17.20;96691.00;;;;8448718;28;20221;-65
2022/08/12 00:56:28;;;;;;;5.88;3.00;;;;;17.10;96679.00;;;;8437977;28;20236;-65
2022/08/12 01:00:34;;;;;;;5.32;2.90;;;;;17.10;96681.00;;;;8445422;28;21126;-66
2022/08/12 01:13:22;;;;;;;4.07;2.90;;;;;17.10;96671.00;;;;8409771;28;20227;-66
2022/08/12 01:17:28;;;;;;;4.40;2.88;;;;;17.00;96670.00;;;;8436584;28;20337;-65
2022/08/12 01:21:54;;;;;;;4.65;2.90;;;;;17.00;96673.00;;;;8410176;28;20244;-65
2022/08/12 01:26:02;;;;;;;3.78;3.00;;;;;17.00;96668.00;;;;8417543;28;20224;-66
2022/08/12 01:30:08;;;;;;;4.05;2.80;;;;;17.00;96669.00;;;;8418265;28;20260;-65
2022/08/12 01:34:13;;;;;;;5.63;2.95;;;;;17.10;96663.00;;;;8420126;28;20253;-66
2022/08/12 01:38:38;;;;;;;3.50;2.75;;;;;17.10;96664.00;;;;8414151;28;20274;-66
2022/08/12 01:42:46;;;;;;;4.53;3.05;;;;;17.10;96667.00;;;;8415395;28;20229;-65
2022/08/12 01:46:57;;;;;;;3.20;2.95;;;;;17.10;96652.00;;;;8414539;28;20341;-65
2022/08/12 01:51:05;;;;;;;4.53;3.20;;;;;17.00;96650.00;;;;8420871;28;20226;-65
2022/08/12 01:55:11;;;;;;;4.00;2.90;;;;;17.00;96646.00;;;;8420940;28;20585;-65
2022/08/12 02:12:53;;;;;;;4.20;2.95;;;;;17.00;96641.00;;;;8450674;27;20240;-65
2022/08/12 02:17:22;;;;;;;3.30;3.00;;;;;17.00;96645.00;;;;8447986;27;20564;-65
2022/08/12 02:21:51;;;;;;;4.72;2.63;;;;;17.00;96639.00;;;;8448661;27;20224;-65
2022/08/12 02:25:59;;;;;;;3.60;2.83;;;;;17.00;96629.00;;;;8432472;27;20237;-65
2022/08/12 02:30:02;;;;;;;5.22;2.90;;;;;17.00;96631.00;;;;8434247;27;20232;-65
2022/08/12 02:34:08;;;;;;;2.90;2.70;;;;;17.00;96627.00;;;;8431713;27;20712;-67
2022/08/12 02:38:13;;;;;;;3.97;2.88;;;;;17.00;96629.00;;;;8449164;27;20239;-65
2022/08/12 02:42:19;;;;;;;3.05;2.85;;;;;17.00;96625.00;;;;8448965;27;20584;-65
2022/08/12 02:46:29;;;;;;;5.78;2.97;;;;;16.90;96619.00;;;;8449333;27;20645;-66
2022/08/12 02:50:39;;;;;;;3.55;2.50;;;;;16.90;96615.00;;;;8442532;27;20579;-66
2022/08/12 02:54:47;;;;;;;4.07;3.30;;;;;16.80;96622.00;;;;8447832;27;20240;-66
2022/08/12 02:58:50;;;;;;;6.88;3.17;;;;;16.50;96618.00;;;;8443253;27;20225;-66
2022/08/12 03:02:57;;;;;;;4.68;3.60;;;;;16.20;96618.00;;;;8425028;22;20323;-66
2022/08/12 03:07:13;;;;;;;4.10;3.70;;;;;15.80;96607.00;;;;8365323;28;20232;-66
2022/08/12 03:11:22;;;;;;;4.43;3.63;;;;;15.60;96608.00;;;;8364334;28;20719;-66
2022/08/12 03:15:26;;;;;;;4.97;3.35;;;;;15.40;96604.00;;;;8370955;28;20234;-66
2022/08/12 03:19:29;;;;;;;5.97;3.55;;;;;15.20;96607.00;;;;8366711;28;20248;-64
2022/08/12 03:23:36;;;;;;;4.03;3.60;;;;;15.00;96600.00;;;;8371086;28;20237;-65
2022/08/12 03:27:48;;;;;;;4.55;3.50;;;;;14.90;96600.00;;;;8370429;28;20241;-65
2022/08/12 03:31:57;;;;;;;5.72;3.53;;;;;14.80;96604.00;;;;8363200;28;20946;-66
2022/08/12 03:36:03;;;;;;;8.20;3.95;;;;;14.70;96601.00;;;;8368846;28;20233;-65
2022/08/12 03:41:32;;;;;;;3.78;3.45;;;;;14.60;96602.00;;;;8362211;28;20769;-66
2022/08/12 04:02:13;;;;;;;4.55;4.00;;;;;14.40;96611.00;;;;8363717;28;20224;-65
2022/08/12 04:06:17;;;;;;;4.20;3.58;;;;;14.30;96611.00;;;;8334986;28;20221;-65
2022/08/12 04:14:58;;;;;;;8.55;3.78;;;;;14.10;96606.00;;;;8334714;28;20232;-65
2022/08/12 04:19:04;;;;;;;4.70;3.30;;;;;14.40;96609.00;;;;8341997;28;20225;-64
2022/08/12 04:23:11;;;;;;;5.13;3.00;;;;;14.70;96614.00;;;;8346369;28;20304;-66
2022/08/12 04:27:18;;;;;;;4.00;3.20;;;;;15.00;96611.00;;;;8346966;28;20290;-66
2022/08/12 04:31:32;;;;;;;6.82;3.05;;;;;15.20;96610.00;;;;8345747;28;20233;-65
2022/08/12 04:35:35;;;;;;;3.85;3.50;;;;;15.30;96611.00;;;;8339448;28;20231;-66
2022/08/12 04:39:41;;;;;;;5.20;3.08;;;;;15.50;96606.00;;;;8340724;28;20994;-66
2022/08/12 04:43:44;;;;;;;3.22;2.80;;;;;15.60;96612.00;;;;8335964;28;20236;-67
2022/08/12 04:48:06;;;;;;;4.57;2.70;;;;;15.90;96621.00;;;;8334469;28;20241;-67
2022/08/12 04:52:09;;;;;;;3.67;2.70;;;;;16.20;96620.00;;;;8342588;28;20239;-66
2022/08/12 04:56:14;;;;;;;7.45;3.05;;;;;16.40;96623.00;;;;8342385;28;20239;-67
2022/08/12 05:00:17;;;;;;;4.20;2.92;;;;;16.60;96624.00;;;;8343895;28;20242;-66
2022/08/12 05:04:25;;;;;;;3.10;2.80;;;;;16.80;96625.00;;;;8331661;28;20238;-66
2022/08/12 05:08:29;;;;;;;3.17;2.97;;;;;16.90;96621.00;;;;8342673;28;20231;-66
2022/08/12 05:12:36;;;;;;;6.10;3.00;;;;;17.10;96621.00;;;;8333990;28;20235;-66
2022/08/12 05:16:39;;;;;;;3.05;2.63;;;;;17.20;96622.00;;;;8342764;28;20239;-66
2022/08/12 05:20:49;;;;;;;7.47;3.17;;;;;17.30;96631.00;;;;8342835;28;20231;-66
2022/08/12 05:24:52;;;;;;;7.63;3.15;;;;;17.40;96626.00;;;;8329795;28;20235;-66
2022/08/12 05:28:56;;;;;;;5.60;2.63;;;;;17.50;96618.00;;;;8337354;28;20571;-65
2022/08/12 05:33:04;;;;;;;5.53;2.95;;;;;17.70;96629.00;;;;8338756;28;20232;-65
2022/08/12 05:37:08;;;;;;;8.38;2.63;;;;;17.80;96636.00;;;;8337185;28;20229;-64
2022/08/12 05:41:19;;;;;;;7.30;3.45;;;;;18.00;96640.00;;;;8332663;28;20241;-64
2022/08/12 05:45:22;;;;;;;3.70;3.25;;;;;18.10;96644.00;;;;8331963;28;20697;-65
2022/08/12 05:49:27;;;;;;;8.45;3.80;;;;;18.20;96654.00;;;;8337121;28;20246;-65
2022/08/12 05:53:32;;;;;;;8.82;4.03;;;;;18.40;96651.00;;;;8343759;28;20244;-65
2022/08/12 05:57:35;;;;;;;7.15;3.75;;;;;18.50;96649.00;;;;8342739;28;20227;-65
2022/08/12 06:01:39;;;;;;;4.85;2.95;;;;;18.60;96666.00;;;;8336893;28;20231;-64
2022/08/12 06:06:03;;;;;;;4.53;2.70;;;;;18.70;96668.00;;;;8332526;28;20802;-64
2022/08/12 06:10:08;;;;;;;11.88;3.38;;;;;18.80;96660.00;;;;8345833;28;20223;-65
2022/08/12 06:14:12;;;;;;;3.28;2.78;;;;;19.00;96657.00;;;;8342604;28;20246;-65
2022/08/12 06:18:19;;;;;;;2.83;2.63;;;;;19.10;96662.00;;;;8335741;28;20226;-66
2022/08/12 06:22:22;;;;;;;7.60;3.08;;;;;19.30;96665.00;;;;8340160;28;20247;-66
2022/08/12 06:26:27;;;;;;;4.00;2.75;;;;;19.40;96667.00;;;;8343244;28;20692;-65
2022/08/12 06:30:33;;;;;;;4.90;2.60;;;;;19.50;96675.00;;;;8334794;28;20224;-65
2022/08/12 06:34:40;;;;;;;6.82;2.97;;;;;19.60;96665.00;;;;8338730;28;20759;-65
2022/08/12 06:39:04;;;;;;;6.40;3.00;;;;;19.70;96661.00;;;;8344113;28;20228;-66
2022/08/12 06:43:18;;;;;;;5.03;2.70;;;;;19.80;96673.00;;;;8345680;28;20281;-64
2022/08/12 06:47:21;;;;;;;5.20;2.50;;;;;20.00;96665.00;;;;8336970;28;20229;-64
2022/08/12 06:51:25;;;;;;;3.28;2.75;;;;;20.10;96663.00;;;;8336766;28;20232;-65
2022/08/12 06:55:29;;;;;;;4.78;2.75;;;;;20.30;96669.00;;;;8319777;28;20303;-65
2022/08/12 06:59:34;;;;;;;7.43;2.85;;;;;20.40;96667.00;;;;8341724;28;20692;-63
2022/08/12 07:03:38;;;;;;;5.97;2.90;;;;;20.80;96663.00;;;;8339296;28;20228;-63
2022/08/12 07:07:41;;;;;;;2.60;2.40;;;;;21.00;96674.00;;;;8338328;28;20229;-64
2022/08/12 07:11:46;;;;;;;4.60;2.95;;;;;21.40;96672.00;;;;8330085;28;20314;-64
2022/08/12 07:15:55;;;;;;;3.65;2.60;;;;;21.60;96682.00;;;;8339320;28;20305;-69
2022/08/12 07:19:58;;;;;;;4.78;2.67;;;;;22.00;96679.00;;;;8339997;28;20237;-68
2022/08/12 07:24:06;;;;;;;6.40;2.65;;;;;22.50;96672.00;;;;8340706;28;20240;-70
2022/08/12 07:28:12;;;;;;;2.65;2.42;;;;;23.00;96670.00;;;;8342508;28;20221;-70
2022/08/12 07:32:23;;;;;;;4.97;2.63;;;;;23.10;96671.00;;;;8336808;28;20224;-70
2022/08/12 07:36:32;;;;;;;5.93;2.60;;;;;23.40;96667.00;;;;8334231;28;20233;-70
2022/08/12 07:40:35;;;;;;;9.18;2.40;;;;;23.80;96667.00;;;;8338861;28;20324;-70
2022/08/12 07:44:39;;;;;;;2.85;2.50;;;;;24.20;96669.00;;;;8331117;28;20224;-69
2022/08/12 07:48:47;;;;;;;3.80;2.55;;;;;24.40;96660.00;;;;8334847;28;20307;-70
2022/08/12 07:52:50;;;;;;;4.10;2.88;;;;;24.70;96668.00;;;;8321549;28;20312;-69
2022/08/12 07:56:55;;;;;;;6.53;2.63;;;;;24.90;96664.00;;;;8335284;28;20231;-69
2022/08/12 08:00:59;;;;;;;5.43;2.30;;;;;25.20;96659.00;;;;8344485;28;20769;-69
2022/08/12 08:05:04;;;;;;;2.95;2.50;;;;;25.40;96660.00;;;;8338750;28;20232;-69
2022/08/12 08:09:09;;;;;;;5.28;2.20;;;;;25.80;96662.00;;;;8339892;28;20706;-69
2022/08/12 08:13:14;;;;;;;3.17;1.95;;;;;26.10;96673.00;;;;8349913;28;20696;-69
2022/08/12 08:17:17;;;;;;;3.08;1.92;;;;;26.10;96663.00;;;;8339125;28;20744;-69
2022/08/12 08:21:26;;;;;;;3.25;2.08;;;;;26.10;96663.00;;;;8336504;28;20238;-70
2022/08/12 08:25:31;;;;;;;2.58;1.80;;;;;26.40;96662.00;;;;8329969;28;20304;-69
2022/08/12 08:29:39;;;;;;;2.97;1.88;;;;;26.50;96657.00;;;;8334635;28;20901;-69
2022/08/12 08:33:43;;;;;;;4.50;2.15;;;;;26.80;96657.00;;;;8340121;28;20237;-69
2022/08/12 08:38:13;;;;;;;7.45;2.03;;;;;26.70;96664.00;;;;8335212;28;20604;-70
2022/08/12 08:42:39;;;;;;;2.15;1.85;;;;;26.80;96673.00;;;;8343646;28;20585;-70
2022/08/12 08:46:44;;;;;;;6.63;1.88;;;;;26.80;96671.00;;;;8339369;28;20213;-70
2022/08/12 08:50:47;;;;;;;4.15;1.70;;;;;26.90;96673.00;;;;8346829;28;20303;-70
2022/08/12 08:55:09;;;;;;;5.78;1.90;;;;;27.10;96671.00;;;;8350594;28;20229;-69
2022/08/12 08:59:13;;;;;;;2.40;1.80;;;;;26.90;96677.00;;;;8349850;28;20344;-68
2022/08/12 09:03:18;;;;;;;1.73;1.52;;;;;26.60;96696.00;;;;8350688;28;20256;-69
2022/08/12 09:07:43;;;;;;;3.15;1.67;;;;;26.20;96687.00;;;;8345801;28;20232;-71
2022/08/12 09:16:32;;;;;;;1.73;1.67;;;;;26.50;96679.00;;;;8349273;28;20302;-71
2022/08/12 09:20:43;;;;;;;3.55;1.70;;;;;26.20;96682.00;;;;8342675;28;20836;-70
2022/08/12 09:24:52;;;;;;;2.15;1.75;;;;;26.10;96674.00;;;;8343430;28;20968;-70
2022/08/12 09:28:58;;;;;;;3.42;1.63;;;;;26.00;96673.00;;;;8345385;28;20228;-71
2022/08/12 09:33:02;;;;;;;4.75;1.70;;;;;25.80;96669.00;;;;8344921;28;20240;-70
2022/08/12 09:37:27;;;;;;;4.00;1.70;;;;;26.00;96677.00;;;;8340257;28;20350;-70
2022/08/12 09:45:19;;;;;;;1.60;1.60;;;;;26.90;96686.00;;;;8342344;28;20347;-69
2022/08/12 09:46:35;;;;;;;3.15;1.60;;;;;27.70;96671.00;;;;8345427;28;20263;-71
2022/08/12 09:50:40;;;;;;;4.07;1.77;;;;;28.40;96674.00;;;;8324906;28;20233;-70
2022/08/12 09:54:52;;;;;;;1.65;1.55;;;;;28.80;96665.00;;;;8338702;28;20224;-70
2022/08/12 09:59:08;;;;;;;6.53;1.92;;;;;29.00;96673.00;;;;8341876;28;21014;-70
2022/08/12 10:03:15;;;;;;;3.40;1.60;;;;;28.50;96664.00;;;;8344886;28;20759;-70
2022/08/12 10:07:34;;;;;;;5.55;1.80;;;;;28.40;96662.00;;;;8349046;28;20260;-69
2022/08/12 10:16:16;;;;;;;3.83;1.88;;;;;28.20;96638.00;;;;8331310;28;20629;-70
2022/08/12 10:20:26;;;;;;;4.72;1.55;;;;;28.30;96636.00;;;;8342202;28;20255;-70
2022/08/12 10:24:29;;;;;;;2.45;1.50;;;;;28.80;96639.00;;;;8338682;28;20231;-70
2022/08/12 10:33:05;;;;;;;1.88;1.50;;;;;28.90;96627.00;;;;8344304;28;20217;-71
2022/08/12 10:37:22;;;;;;;1.20;1.20;;;;;28.60;96625.00;;;;8342166;28;20231;-70
2022/08/12 10:46:07;;;;;;;1.30;1.20;;;;;29.50;96613.00;;;;8340603;28;20755;-70
2022/08/12 10:50:15;;;;;;;1.38;1.30;;;;;29.70;96610.00;;;;8342886;28;20224;-70
2022/08/12 10:54:41;;;;;;;1.17;1.17;;;;;29.80;96606.00;;;;8337339;28;20224;-70
2022/08/12 10:58:45;;;;;;;2.72;1.27;;;;;29.70;96600.00;;;;8339139;28;20228;-67
2022/08/12 11:02:53;;;;;;;2.10;1.20;;;;;30.40;96607.00;;;;8343689;28;20905;-67
2022/08/12 11:07:16;;;;;;;2.83;1.75;;;;;30.10;96596.00;;;;8331866;28;20225;-67
2022/08/12 11:11:41;;;;;;;5.07;1.20;;;;;30.00;96598.00;;;;8338589;28;20309;-66
2022/08/12 11:16:05;;;;;;;3.05;1.38;;;;;30.00;96597.00;;;;8345267;28;20726;-68
2022/08/12 11:20:24;;;;;;;1.63;1.50;;;;;30.20;96602.00;;;;8336686;28;20752;-67
2022/08/12 11:24:34;;;;;;;1.55;1.10;;;;;30.10;96586.00;;;;8343272;28;20220;-67
2022/08/12 11:28:39;;;;;;;2.17;1.20;;;;;30.40;96584.00;;;;8343353;28;20243;-68
2022/08/12 11:32:43;;;;;;;2.45;1.20;;;;;30.90;96578.00;;;;8341120;28;20235;-67
2022/08/12 11:36:53;;;;;;;1.40;1.33;;;;;31.10;96584.00;;;;8347566;28;20599;-70
2022/08/12 11:40:56;;;;;;;1.70;1.30;;;;;31.50;96584.00;;;;8338673;28;20235;-69
2022/08/12 11:45:05;;;;;;;2.63;1.58;;;;;32.20;96562.00;;;;8334953;28;20239;-63
2022/08/12 11:49:12;;;;;;;1.70;1.60;;;;;33.30;96573.00;;;;8341337;28;20311;-70
2022/08/12 11:53:28;;;;;;;1.20;1.20;;;;;33.70;96566.00;;;;8341070;28;20287;-70
2022/08/12 11:57:53;;;;;;;1.48;1.17;;;;;34.40;96561.00;;;;8338370;28;20337;-70
2022/08/12 12:02:18;;;;;;;1.40;1.40;;;;;33.70;96557.00;;;;8337632;28;20236;-70
2022/08/12 12:06:23;;;;;;;2.13;1.30;;;;;33.30;96576.00;;;;8329719;28;20282;-69
2022/08/12 12:10:26;;;;;;;1.60;1.30;;;;;32.60;96554.00;;;;8337182;28;20627;-68
2022/08/12 12:14:29;;;;;;;1.20;1.20;;;;;32.50;96563.00;;;;8340603;28;20307;-69
2022/08/12 12:18:42;;;;;;;1.30;1.30;;;;;31.60;96559.00;;;;8338000;28;20287;-69
2022/08/12 12:22:46;;;;;;;2.20;1.42;;;;;30.80;96552.00;;;;8334573;28;20232;-67
2022/08/12 12:26:50;;;;;;;2.00;1.35;;;;;30.20;96543.00;;;;8343571;28;20298;-67
2022/08/12 12:31:03;;;;;;;1.80;1.10;;;;;29.80;96547.00;;;;8353582;28;20626;-67
2022/08/12 12:35:18;;;;;;;1.38;1.30;;;;;29.60;96536.00;;;;8349273;28;20639;-67
2022/08/12 12:39:42;;;;;;;3.33;1.30;;;;;29.80;96536.00;;;;8348188;28;20255;-68
2022/08/12 12:43:59;;;;;;;1.52;1.40;;;;;29.70;96521.00;;;;8346477;28;20271;-67
2022/08/12 12:48:08;;;;;;;1.30;1.30;;;;;29.80;96519.00;;;;8340874;28;20243;-68
2022/08/12 12:52:19;;;;;;;1.83;1.38;;;;;29.80;96520.00;;;;8340829;28;20231;-69
2022/08/12 12:56:24;;;;;;;1.85;1.40;;;;;29.40;96534.00;;;;8348469;28;20669;-69
2022/08/12 13:00:40;;;;;;;2.67;1.70;;;;;28.80;96520.00;;;;8359796;28;20220;-68
2022/08/12 13:04:53;;;;;;;1.80;1.42;;;;;28.60;96532.00;;;;8364232;28;20228;-69
2022/08/12 13:08:58;;;;;;;1.73;1.63;;;;;28.80;96515.00;;;;8379552;28;20219;-68
2022/08/12 13:13:06;;;;;;;2.15;1.42;;;;;28.60;96520.00;;;;8371859;28;20232;-69
2022/08/12 13:17:30;;;;;;;2.40;1.40;;;;;28.30;96518.00;;;;8366245;28;20239;-69
2022/08/12 13:26:21;;;;;;;1.73;1.67;;;;;28.30;96516.00;;;;8374681;28;20231;-69
2022/08/12 13:30:27;;;;;;;2.15;1.50;;;;;28.70;96507.00;;;;8380074;28;20226;-69
2022/08/12 13:34:31;;;;;;;3.20;1.63;;;;;29.00;96524.00;;;;8347963;28;20263;-68
2022/08/12 13:38:40;;;;;;;2.25;1.48;;;;;29.00;96503.00;;;;8371169;28;21216;-68
2022/08/12 13:42:47;;;;;;;1.50;1.40;;;;;28.80;96509.00;;;;8377989;28;20247;-69
2022/08/12 13:46:53;;;;;;;1.33;1.33;;;;;28.60;96514.00;;;;8379733;28;20771;-69
2022/08/12 13:51:02;;;;;;;2.28;1.85;;;;;28.50;96516.00;;;;8375836;28;20235;-69
2022/08/12 13:55:06;;;;;;;2.80;1.50;;;;;28.40;96515.00;;;;8362496;28;20242;-68
2022/08/12 13:59:12;;;;;;;1.85;1.30;;;;;28.10;96510.00;;;;8380901;28;20286;-69
2022/08/12 14:03:16;;;;;;;1.50;1.40;;;;;28.10;96510.00;;;;8372544;28;20247;-68
2022/08/12 14:07:19;;;;;;;1.60;1.42;;;;;28.10;96509.00;;;;8371679;28;20230;-68
2022/08/12 14:11:24;;;;;;;1.30;1.30;;;;;28.40;96497.00;;;;8357666;28;20231;-67
2022/08/12 14:15:37;;;;;;;2.47;1.30;;;;;30.10;96495.00;;;;8359682;28;20220;-69
2022/08/12 14:20:12;;;;;;;2.15;1.52;;;;;31.50;96501.00;;;;8376120;28;20239;-68
2022/08/12 14:24:05;;;;;;;4.30;1.40;;;;;30.40;96507.00;;;;8375857;28;20220;-68
2022/08/12 14:28:15;;;;;;;1.30;1.30;;;;;29.50;96504.00;;;;8373413;28;20853;-68
2022/08/12 14:32:22;;;;;;;1.20;1.20;;;;;28.90;96513.00;;;;8378388;28;20863;-67
2022/08/12 14:36:28;;;;;;;1.48;1.20;;;;;28.50;96501.00;;;;8374655;28;20216;-68
2022/08/12 14:40:31;;;;;;;1.50;1.25;;;;;28.20;96506.00;;;;8370649;28;20818;-69
2022/08/12 14:44:36;;;;;;;1.27;1.27;;;;;28.00;96493.00;;;;8369910;28;20318;-68
2022/08/12 14:49:01;;;;;;;1.20;1.20;;;;;28.60;96505.00;;;;8364829;28;20223;-67
2022/08/12 14:53:24;;;;;;;3.53;1.40;;;;;28.50;96505.00;;;;8374406;28;20216;-68
2022/08/12 14:57:54;;;;;;;1.15;1.15;;;;;28.20;96501.00;;;;8367752;28;20239;-67
2022/08/12 15:01:59;;;;;;;2.25;1.30;;;;;29.00;96499.00;;;;8379689;28;20251;-68
2022/08/12 15:06:05;;;;;;;1.88;1.30;;;;;29.80;96493.00;;;;8376597;28;20265;-69
2022/08/12 15:10:29;;;;;;;1.20;1.20;;;;;30.60;96492.00;;;;8365207;28;20239;-68
2022/08/12 15:14:36;;;;;;;1.77;1.50;;;;;31.00;96511.00;;;;8372121;28;20256;-67
2022/08/12 15:18:40;;;;;;;1.20;1.20;;;;;30.50;96518.00;;;;8369422;28;20239;-67
2022/08/12 15:23:05;;;;;;;1.67;1.20;;;;;29.70;96519.00;;;;8356610;28;20770;-68
2022/08/12 15:27:23;;;;;;;1.42;1.33;;;;;29.00;96514.00;;;;8369462;28;20319;-67
2022/08/12 15:31:46;;;;;;;1.45;1.35;;;;;28.30;96520.00;;;;8365536;28;20219;-74
2022/08/12 15:36:03;;;;;;;3.47;1.50;;;;;27.70;96514.00;;;;8372469;28;20208;-73
2022/08/12 15:40:10;;;;;;;2.08;1.40;;;;;27.40;96506.00;;;;8374770;28;20233;-73
2022/08/12 15:44:14;;;;;;;6.25;1.50;;;;;27.20;96510.00;;;;8367356;28;20216;-72
2022/08/12 15:48:37;;;;;;;5.40;1.45;;;;;26.90;96507.00;;;;8371710;28;20230;-72
2022/08/12 15:52:40;;;;;;;4.20;1.50;;;;;26.80;96509.00;;;;8372099;28;20616;-72
2022/08/12 15:56:47;;;;;;;1.30;1.30;;;;;27.30;96497.00;;;;8375099;28;20234;-72
2022/08/12 16:00:51;;;;;;;1.48;1.40;;;;;28.10;96499.00;;;;8374361;28;20315;-72
2022/08/12 16:04:54;;;;;;;1.92;1.33;;;;;28.80;96506.00;;;;8376320;28;20244;-71
2022/08/12 16:08:58;;;;;;;1.85;1.60;;;;;29.30;96504.00;;;;8383717;28;20305;-72
2022/08/12 16:13:16;;;;;;;5.82;1.35;;;;;29.80;96512.00;;;;8373853;28;20216;-73
2022/08/12 16:17:38;;;;;;;1.13;1.10;;;;;29.70;96507.00;;;;8380304;28;20669;-73
2022/08/12 16:22:01;;;;;;;3.33;1.45;;;;;29.10;96517.00;;;;8382396;28;20227;-72
2022/08/12 16:26:08;;;;;;;1.33;1.27;;;;;28.60;96502.00;;;;8385960;28;20220;-71
2022/08/12 16:30:19;;;;;;;1.33;1.27;;;;;28.40;96503.00;;;;8377248;28;20228;-73
2022/08/12 16:34:41;;;;;;;1.70;1.30;;;;;28.70;96494.00;;;;8372478;28;20231;-72
2022/08/12 16:39:01;;;;;;;1.77;1.30;;;;;29.90;96501.00;;;;8369636;28;20721;-71
2022/08/12 16:43:24;;;;;;;1.33;1.10;;;;;30.90;96515.00;;;;8379767;28;20231;-73
2022/08/12 16:47:30;;;;;;;3.55;1.15;;;;;31.10;96545.00;;;;8378365;28;20266;-74
2022/08/12 16:51:53;;;;;;;6.25;1.27;;;;;29.30;96547.00;;;;8380051;28;20216;-76
2022/08/12 16:55:58;;;;;;;15.27;2.30;;;;;25.10;96545.00;;;;8373177;28;20211;-69
2022/08/12 17:00:05;;;;;;;6.47;1.95;;;;;22.80;96538.00;;;;8374400;28;20231;-68
2022/08/12 17:04:10;;;;;;;7.88;2.38;;;;;21.60;96529.00;;;;8373682;28;20756;-67
2022/08/12 17:08:14;;;;;;;5.80;2.10;;;;;21.10;96539.00;;;;8368409;28;20679;-67
2022/08/12 17:12:18;;;;;;;12.20;2.45;;;;;20.70;96538.00;;;;8372964;28;20281;-67
2022/08/12 17:16:22;;;;;;;9.80;2.80;;;;;20.40;96533.00;;;;8368174;28;20235;-66
2022/08/12 17:20:34;;;;;;;10.45;3.10;;;;;20.10;96530.00;;;;8381567;28;20319;-68
2022/08/12 17:24:46;;;;;;;3.55;2.03;;;;;19.90;96522.00;;;;8367123;28;20231;-67
2022/08/12 17:28:59;;;;;;;3.63;2.20;;;;;19.80;96519.00;;;;8365963;28;20304;-66
2022/08/12 17:33:04;;;;;;;4.05;2.47;;;;;19.70;96519.00;;;;8360442;28;20585;-67
2022/08/12 17:37:11;;;;;;;5.13;2.50;;;;;19.70;96522.00;;;;8366610;28;20224;-66
2022/08/12 17:41:16;;;;;;;4.45;2.63;;;;;19.50;96531.00;;;;8352913;28;20315;-66
2022/08/12 17:45:42;;;;;;;4.13;2.40;;;;;19.20;96538.00;;;;8370623;28;20259;-67
2022/08/12 17:49:51;;;;;;;4.90;2.83;;;;;19.20;96535.00;;;;8368001;28;20637;-67
2022/08/12 17:54:09;;;;;;;9.82;2.45;;;;;19.10;96533.00;;;;8368278;28;20235;-67
2022/08/12 17:58:15;;;;;;;3.72;2.33;;;;;19.10;96532.00;;;;8371116;28;20232;-67
2022/08/12 18:02:19;;;;;;;3.08;2.20;;;;;19.00;96531.00;;;;8368398;28;20220;-67
2022/08/12 18:06:33;;;;;;;4.10;2.17;;;;;18.80;96528.00;;;;8359318;28;20262;-66
2022/08/12 18:15:17;;;;;;;9.38;2.15;;;;;18.60;96531.00;;;;8359426;28;20245;-67
2022/08/12 18:19:29;;;;;;;9.15;2.42;;;;;18.60;96536.00;;;;8359083;28;20224;-67
2022/08/12 18:23:57;;;;;;;5.38;1.92;;;;;18.60;96541.00;;;;8367893;28;20319;-68
2022/08/12 18:28:02;;;;;;;5.07;2.00;;;;;18.60;96539.00;;;;8366962;28;20258;-68
2022/08/12 18:32:22;;;;;;;3.78;2.28;;;;;18.40;96538.00;;;;8351391;28;20238;-68
2022/08/12 18:36:46;;;;;;;3.63;2.20;;;;;18.30;96543.00;;;;8369001;28;20279;-68
2022/08/12 18:45:30;;;;;;;4.35;2.30;;;;;18.10;96537.00;;;;8364607;28;20271;-68
2022/08/12 18:49:53;;;;;;;5.32;2.80;;;;;18.00;96542.00;;;;8364416;28;20228;-68
2022/08/12 18:53:58;;;;;;;3.40;2.20;;;;;18.00;96543.00;;;;8363248;28;20227;-68
2022/08/12 18:58:15;;;;;;;2.00;1.90;;;;;18.00;96538.00;;;;8363054;28;20220;-67
2022/08/12 19:02:24;;;;;;;2.33;2.05;;;;;18.00;96541.00;;;;8363230;28;20219;-68
2022/08/12 19:06:35;;;;;;;2.20;2.10;;;;;18.00;96537.00;;;;8363058;28;20375;-68
2022/08/12 19:10:42;;;;;;;3.97;2.17;;;;;17.90;96535.00;;;;8362467;28;21780;-68
2022/08/12 19:14:52;;;;;;;3.42;2.22;;;;;17.80;96539.00;;;;8370076;28;20901;-68
2022/08/12 19:19:10;;;;;;;2.63;2.40;;;;;17.70;96543.00;;;;8365068;28;20369;-68
2022/08/12 19:23:19;;;;;;;2.60;2.47;;;;;17.60;96543.00;;;;8362240;28;20465;-68
2022/08/12 19:27:24;;;;;;;2.60;2.40;;;;;17.50;96539.00;;;;8368885;28;20230;-68
2022/08/12 19:31:41;;;;;;;2.95;2.40;;;;;17.30;96542.00;;;;8367706;28;20231;-68
2022/08/12 19:36:04;;;;;;;2.40;2.20;;;;;17.10;96545.00;;;;8364204;28;20237;-68
2022/08/12 19:40:28;;;;;;;2.92;2.20;;;;;16.90;96541.00;;;;8370546;28;20239;-67
2022/08/12 19:44:36;;;;;;;4.05;2.10;;;;;16.80;96540.00;;;;8346893;28;20216;-67
2022/08/12 19:48:43;;;;;;;2.80;2.60;;;;;16.60;96536.00;;;;8369044;28;20279;-69
2022/08/12 19:53:03;;;;;;;2.60;2.40;;;;;16.40;96539.00;;;;8364612;28;20768;-68
2022/08/12 19:57:10;;;;;;;3.13;2.28;;;;;16.30;96540.00;;;;8361876;28;20222;-69
2022/08/12 20:01:16;;;;;;;2.42;2.33;;;;;16.20;96539.00;;;;8364854;28;20314;-68
2022/08/12 20:05:20;;;;;;;4.97;2.42;;;;;16.20;96547.00;;;;8336467;28;20245;-69
2022/08/12 20:09:46;;;;;;;3.15;2.63;;;;;16.20;96549.00;;;;8353718;28;20242;-70
2022/08/12 20:13:56;;;;;;;4.80;2.65;;;;;16.10;96560.00;;;;8340743;28;20753;-70
2022/08/12 20:18:06;;;;;;;4.10;2.78;;;;;15.90;96549.00;;;;8364387;28;21521;-67
2022/08/12 20:22:29;;;;;;;3.40;3.10;;;;;15.80;96540.00;;;;8366066;28;20225;-69
2022/08/12 20:26:37;;;;;;;3.00;2.72;;;;;15.70;96544.00;;;;8365533;28;20220;-69
2022/08/12 20:30:42;;;;;;;3.25;3.00;;;;;15.60;96540.00;;;;8371427;28;20728;-69
2022/08/12 20:35:01;;;;;;;3.20;2.90;;;;;15.60;96528.00;;;;8362846;28;20309;-68
2022/08/12 20:39:14;;;;;;;4.72;2.90;;;;;15.60;96531.00;;;;8371313;28;20699;-70
2022/08/12 20:43:40;;;;;;;4.40;2.88;;;;;15.60;96523.00;;;;8368151;28;20329;-70
2022/08/12 20:47:46;;;;;;;4.60;2.80;;;;;15.60;96530.00;;;;8372559;28;20222;-71
2022/08/12 20:52:07;;;;;;;3.10;2.90;;;;;15.50;96519.00;;;;8372423;28;20254;-70
2022/08/12 20:56:20;;;;;;;6.75;3.10;;;;;15.40;96528.00;;;;8365239;28;20231;-71
2022/08/12 21:00:34;;;;;;;3.60;3.30;;;;;15.50;96530.00;;;;8367963;28;20228;-69
2022/08/12 21:08:58;;;;;;;3.13;2.83;;;;;15.40;96526.00;;;;8351746;28;20241;-70
2022/08/12 21:13:03;;;;;;;3.15;2.95;;;;;15.40;96524.00;;;;8378543;28;20236;-70
2022/08/12 21:17:26;;;;;;;3.47;3.17;;;;;15.40;96526.00;;;;8367674;28;20224;-72
2022/08/12 21:21:52;;;;;;;7.15;3.15;;;;;15.20;96520.00;;;;8377510;28;20252;-72
2022/08/12 21:26:00;;;;;;;4.80;3.90;;;;;15.10;96523.00;;;;8378441;28;20228;-72
2022/08/12 21:30:05;;;;;;;8.57;3.63;;;;;15.10;96519.00;;;;8380332;28;20228;-72
2022/08/12 21:34:10;;;;;;;3.78;3.10;;;;;15.00;96518.00;;;;8382700;28;20359;-72
2022/08/12 21:38:14;;;;;;;3.33;3.13;;;;;15.00;96526.00;;;;8378088;28;20221;-72
2022/08/12 21:42:20;;;;;;;3.88;3.50;;;;;14.90;96535.00;;;;8375485;28;20225;-72
2022/08/12 21:46:31;;;;;;;3.97;3.63;;;;;14.80;96529.00;;;;8375054;28;20228;-71
2022/08/12 21:50:40;;;;;;;4.40;3.70;;;;;14.80;96521.00;;;;8381057;28;20235;-72
2022/08/12 21:54:45;;;;;;;6.40;3.60;;;;;14.70;96523.00;;;;8374438;28;20230;-71
2022/08/12 21:58:48;;;;;;;4.70;3.55;;;;;14.70;96524.00;;;;8379745;28;20227;-71
2022/08/12 22:07:13;;;;;;;3.53;3.22;;;;;14.50;96514.00;;;;8375986;28;20217;-72
2022/08/12 22:11:22;;;;;;;4.53;3.58;;;;;14.60;96521.00;;;;8374014;28;20214;-73
2022/08/12 22:15:44;;;;;;;3.60;3.30;;;;;14.60;96511.00;;;;8376564;28;20234;-73
2022/08/12 22:19:52;;;;;;;6.55;3.25;;;;;14.70;96515.00;;;;8371077;28;20236;-72
2022/08/12 22:24:03;;;;;;;5.05;3.22;;;;;14.70;96530.00;;;;8373191;28;21059;-73
2022/08/12 22:32:47;;;;;;;5.07;3.30;;;;;14.50;96510.00;;;;8346396;28;20651;-72
2022/08/12 22:36:52;;;;;;;3.88;3.50;;;;;14.50;96515.00;;;;8377378;28;20831;-72
2022/08/12 22:41:03;;;;;;;3.83;3.53;;;;;14.50;96512.00;;;;8375168;28;20275;-72
2022/08/12 22:49:33;;;;;;;3.90;3.60;;;;;14.40;96512.00;;;;8366953;28;20232;-72
2022/08/12 22:53:55;;;;;;;4.07;3.75;;;;;14.50;96503.00;;;;8384816;28;20224;-72
2022/08/12 22:58:03;;;;;;;6.78;4.00;;;;;14.40;96495.00;;;;8362429;28;20223;-74
2022/08/12 23:02:06;;;;;;;5.53;4.40;;;;;14.30;96496.00;;;;8373664;28;20238;-72
2022/08/12 23:06:15;;;;;;;3.80;3.50;;;;;14.30;96501.00;;;;8367164;28;20273;-72
2022/08/12 23:10:18;;;;;;;7.63;3.42;;;;;14.30;96500.00;;;;8367891;28;20237;-72